createdAt,value
2023-04-03T00:00:18.574Z,1004.52
2023-04-03T00:01:18.590Z,1004.50
2023-04-03T00:02:18.657Z,1004.54
2023-04-03T00:03:18.608Z,1004.56
2023-04-03T00:04:18.580Z,1004.54
2023-04-03T00:05:18.555Z,1004.64
2023-04-03T00:06:18.610Z,1004.62
2023-04-03T00:07:18.559Z,1004.61
2023-04-03T00:08:18.567Z,1004.58
2023-04-03T00:09:18.500Z,1004.57
2023-04-03T00:10:18.537Z,1004.59
2023-04-03T00:11:18.493Z,1004.58
2023-04-03T00:12:18.610Z,1004.56
2023-04-03T00:13:18.487Z,1004.55
2023-04-03T00:14:18.477Z,1004.54
2023-04-03T00:15:18.464Z,1004.57
2023-04-03T00:16:18.545Z,1004.49
2023-04-03T00:17:18.486Z,1004.58
2023-04-03T00:18:18.478Z,1004.48
2023-04-03T00:19:18.463Z,1004.51
2023-04-03T00:20:18.452Z,1004.52
2023-04-03T00:21:18.447Z,1004.53
2023-04-03T00:22:18.459Z,1004.61
2023-04-03T00:23:18.397Z,1004.52
2023-04-03T00:24:18.489Z,1004.57
2023-04-03T00:25:18.386Z,1004.60
2023-04-03T00:26:18.385Z,1004.61
2023-04-03T00:27:18.377Z,1004.60
2023-04-03T00:28:18.374Z,1004.60
2023-04-03T00:29:18.377Z,1004.65
2023-04-03T00:30:18.374Z,1004.62
2023-04-03T00:31:18.392Z,1004.68
2023-04-03T00:32:18.372Z,1004.61
2023-04-03T00:33:18.373Z,1004.60
2023-04-03T00:34:18.316Z,1004.65
2023-04-03T00:35:18.329Z,1004.72
2023-04-03T00:36:18.377Z,1004.71
2023-04-03T00:37:18.340Z,1004.75
2023-04-03T00:38:18.381Z,1004.78
2023-04-03T00:39:18.301Z,1004.77
2023-04-03T00:40:18.284Z,1004.78
2023-04-03T00:41:18.274Z,1004.76
2023-04-03T00:42:18.288Z,1004.77
2023-04-03T00:43:18.261Z,1004.81
2023-04-03T00:44:18.256Z,1004.83
2023-04-03T00:45:18.263Z,1004.87
2023-04-03T00:46:18.260Z,1004.87
2023-04-03T00:47:18.264Z,1004.95
2023-04-03T00:48:18.234Z,1004.91
2023-04-03T00:49:18.217Z,1004.87
2023-04-03T00:50:18.224Z,1004.91
2023-04-03T00:51:18.211Z,1004.89
2023-04-03T00:52:18.213Z,1004.85
2023-04-03T00:53:18.204Z,1004.89
2023-04-03T00:54:18.193Z,1004.88
2023-04-03T00:55:18.194Z,1004.91
2023-04-03T00:56:18.191Z,1004.89
2023-04-03T00:57:18.252Z,1004.91
2023-04-03T00:58:18.199Z,1004.86
2023-04-03T00:59:18.205Z,1004.87
2023-04-03T01:00:18.149Z,1004.87
2023-04-03T01:01:18.157Z,1004.87
2023-04-03T01:02:18.161Z,1004.91
2023-04-03T01:03:18.137Z,1004.89
2023-04-03T01:04:18.191Z,1004.89
2023-04-03T01:05:18.138Z,1004.86
2023-04-03T01:06:18.145Z,1004.83
2023-04-03T01:07:18.151Z,1004.90
2023-04-03T01:08:18.101Z,1004.89
2023-04-03T01:09:18.092Z,1004.87
2023-04-03T01:10:18.111Z,1004.86
2023-04-03T01:11:18.090Z,1004.75
2023-04-03T01:12:18.096Z,1004.79
2023-04-03T01:13:18.067Z,1004.84
2023-04-03T01:14:18.063Z,1004.81
2023-04-03T01:15:18.084Z,1004.81
2023-04-03T01:16:18.088Z,1004.74
2023-04-03T01:17:19.085Z,1004.75
2023-04-03T01:18:18.066Z,1004.74
2023-04-03T01:19:18.050Z,1004.80
2023-04-03T01:20:18.022Z,1004.80
2023-04-03T01:21:18.018Z,1004.76
2023-04-03T01:22:18.042Z,1004.81
2023-04-03T01:23:18.007Z,1004.91
2023-04-03T01:24:18.001Z,1004.86
2023-04-03T01:25:18.039Z,1004.82
2023-04-03T01:26:17.987Z,1004.93
2023-04-03T01:27:18.008Z,1004.90
2023-04-03T01:28:17.970Z,1004.91
2023-04-03T01:29:18.000Z,1004.87
2023-04-03T01:30:17.976Z,1004.86
2023-04-03T01:31:17.974Z,1004.87
2023-04-03T01:32:17.964Z,1004.84
2023-04-03T01:33:17.936Z,1004.89
2023-04-03T01:34:17.927Z,1004.90
2023-04-03T01:35:17.913Z,1004.88
2023-04-03T01:36:17.972Z,1004.89
2023-04-03T01:37:18.084Z,1004.88
2023-04-03T01:38:17.898Z,1004.90
2023-04-03T01:39:17.895Z,1004.96
2023-04-03T01:40:17.890Z,1005.00
2023-04-03T01:41:17.907Z,1004.97
2023-04-03T01:42:17.877Z,1005.01
2023-04-03T01:43:17.890Z,1005.00
2023-04-03T01:44:17.868Z,1004.98
2023-04-03T01:45:17.862Z,1005.04
2023-04-03T01:46:17.893Z,1005.02
2023-04-03T01:47:17.856Z,1005.03
2023-04-03T01:48:17.875Z,1005.04
2023-04-03T01:49:17.822Z,1005.09
2023-04-03T01:50:17.816Z,1005.05
2023-04-03T01:51:17.808Z,1005.08
2023-04-03T01:52:17.817Z,1005.03
2023-04-03T01:53:17.835Z,1005.09
2023-04-03T01:54:17.803Z,1005.08
2023-04-03T01:55:17.811Z,1005.17
2023-04-03T01:56:17.789Z,1005.06
2023-04-03T01:57:17.801Z,1005.12
2023-04-03T01:58:17.787Z,1005.11
2023-04-03T01:59:17.758Z,1005.16
2023-04-03T02:00:17.785Z,1005.13
2023-04-03T02:01:17.822Z,1005.12
2023-04-03T02:02:17.749Z,1005.15
2023-04-03T02:03:17.752Z,1005.11
2023-04-03T02:04:17.755Z,1005.10
2023-04-03T02:05:17.732Z,1005.08
2023-04-03T02:06:17.706Z,1005.16
2023-04-03T02:07:17.712Z,1005.15
2023-04-03T02:08:17.740Z,1005.10
2023-04-03T02:09:17.694Z,1005.04
2023-04-03T02:10:17.683Z,1005.12
2023-04-03T02:11:17.673Z,1005.12
2023-04-03T02:12:17.674Z,1005.09
2023-04-03T02:13:17.679Z,1005.13
2023-04-03T02:14:17.654Z,1005.13
2023-04-03T02:15:17.654Z,1005.10
2023-04-03T02:16:17.662Z,1005.13
2023-04-03T02:17:17.640Z,1005.17
2023-04-03T02:18:17.665Z,1005.23
2023-04-03T02:19:17.625Z,1005.20
2023-04-03T02:20:17.617Z,1005.13
2023-04-03T02:21:17.632Z,1005.23
2023-04-03T02:22:17.599Z,1005.23
2023-04-03T02:23:17.629Z,1005.19
2023-04-03T02:24:17.586Z,1005.24
2023-04-03T02:25:17.594Z,1005.24
2023-04-03T02:26:17.612Z,1005.24
2023-04-03T02:27:17.586Z,1005.22
2023-04-03T02:28:17.584Z,1005.23
2023-04-03T02:29:17.568Z,1005.23
2023-04-03T02:30:17.554Z,1005.23
2023-04-03T02:31:17.573Z,1005.24
2023-04-03T02:32:17.546Z,1005.22
2023-04-03T02:33:17.568Z,1005.24
2023-04-03T02:34:17.528Z,1005.22
2023-04-03T02:35:17.519Z,1005.21
2023-04-03T02:36:17.517Z,1005.23
2023-04-03T02:37:17.538Z,1005.19
2023-04-03T02:38:17.531Z,1005.18
2023-04-03T02:39:17.486Z,1005.13
2023-04-03T02:40:17.498Z,1005.20
2023-04-03T02:41:17.501Z,1005.14
2023-04-03T02:42:17.472Z,1005.18
2023-04-03T02:43:17.465Z,1005.21
2023-04-03T02:44:17.449Z,1005.18
2023-04-03T02:45:17.459Z,1005.18
2023-04-03T02:46:17.493Z,1005.21
2023-04-03T02:47:17.461Z,1005.22
2023-04-03T02:48:17.436Z,1005.20
2023-04-03T02:49:17.426Z,1005.19
2023-04-03T02:50:17.425Z,1005.26
2023-04-03T02:51:17.424Z,1005.23
2023-04-03T02:52:17.403Z,1005.24
2023-04-03T02:53:17.418Z,1005.29
2023-04-03T02:54:17.402Z,1005.33
2023-04-03T02:55:17.400Z,1005.36
2023-04-03T02:56:17.380Z,1005.35
2023-04-03T02:57:17.421Z,1005.30
2023-04-03T02:58:17.408Z,1005.32
2023-04-03T02:59:17.364Z,1005.29
2023-04-03T03:00:17.364Z,1005.29
2023-04-03T03:01:17.397Z,1005.28
2023-04-03T03:02:17.348Z,1005.29
2023-04-03T03:03:17.380Z,1005.26
2023-04-03T03:04:17.336Z,1005.26
2023-04-03T03:05:17.402Z,1005.28
2023-04-03T03:06:17.323Z,1005.30
2023-04-03T03:07:17.313Z,1005.28
2023-04-03T03:08:17.330Z,1005.31
2023-04-03T03:09:17.293Z,1005.32
2023-04-03T03:10:17.311Z,1005.33
2023-04-03T03:11:17.289Z,1005.34
2023-04-03T03:12:17.284Z,1005.33
2023-04-03T03:13:17.300Z,1005.30
2023-04-03T03:14:17.272Z,1005.32
2023-04-03T03:15:17.268Z,1005.34
2023-04-03T03:16:17.329Z,1005.33
2023-04-03T03:17:17.256Z,1005.34
2023-04-03T03:18:17.259Z,1005.38
2023-04-03T03:19:17.226Z,1005.35
2023-04-03T03:20:17.230Z,1005.32
2023-04-03T03:21:17.223Z,1005.36
2023-04-03T03:22:17.214Z,1005.35
2023-04-03T03:23:17.245Z,1005.30
2023-04-03T03:24:17.208Z,1005.39
2023-04-03T03:25:17.196Z,1005.36
2023-04-03T03:26:17.180Z,1005.31
2023-04-03T03:27:17.177Z,1005.34
2023-04-03T03:28:17.204Z,1005.34
2023-04-03T03:29:17.169Z,1005.35
2023-04-03T03:30:17.166Z,1005.37
2023-04-03T03:31:17.214Z,1005.35
2023-04-03T03:32:17.140Z,1005.40
2023-04-03T03:33:17.399Z,1005.37
2023-04-03T03:34:17.946Z,1005.35
2023-04-03T03:35:17.116Z,1005.36
2023-04-03T03:36:17.181Z,1005.37
2023-04-03T03:37:18.111Z,1005.36
2023-04-03T03:38:17.126Z,1005.45
2023-04-03T03:39:17.098Z,1005.44
2023-04-03T03:40:17.099Z,1005.43
2023-04-03T03:41:17.085Z,1005.43
2023-04-03T03:42:17.078Z,1005.42
2023-04-03T03:43:17.107Z,1005.42
2023-04-03T03:44:17.067Z,1005.49
2023-04-03T03:45:17.066Z,1005.46
2023-04-03T03:46:17.115Z,1005.40
2023-04-03T03:47:17.052Z,1005.39
2023-04-03T03:48:17.068Z,1005.40
2023-04-03T03:49:17.035Z,1005.40
2023-04-03T03:50:17.033Z,1005.41
2023-04-03T03:51:17.014Z,1005.42
2023-04-03T03:52:17.044Z,1005.39
2023-04-03T03:53:17.049Z,1005.39
2023-04-03T03:54:17.005Z,1005.36
2023-04-03T03:55:17.008Z,1005.41
2023-04-03T03:56:16.987Z,1005.37
2023-04-03T03:57:17.046Z,1005.37
2023-04-03T03:58:17.010Z,1005.39
2023-04-03T03:59:16.972Z,1005.35
2023-04-03T04:00:16.973Z,1005.41
2023-04-03T04:01:16.971Z,1005.38
2023-04-03T04:02:17.038Z,1005.39
2023-04-03T04:03:17.068Z,1005.37
2023-04-03T04:04:17.043Z,1005.44
2023-04-03T04:05:16.947Z,1005.43
2023-04-03T04:06:16.961Z,1005.43
2023-04-03T04:07:16.931Z,1005.42
2023-04-03T04:08:16.939Z,1005.50
2023-04-03T04:09:16.914Z,1005.46
2023-04-03T04:10:16.914Z,1005.51
2023-04-03T04:11:16.903Z,1005.47
2023-04-03T04:12:16.904Z,1005.52
2023-04-03T04:13:16.913Z,1005.50
2023-04-03T04:14:16.873Z,1005.51
2023-04-03T04:15:16.852Z,1005.50
2023-04-03T04:16:17.926Z,1005.57
2023-04-03T04:17:16.862Z,1005.50
2023-04-03T04:18:16.879Z,1005.52
2023-04-03T04:19:16.851Z,1005.48
2023-04-03T04:20:16.848Z,1005.47
2023-04-03T04:21:16.848Z,1005.41
2023-04-03T04:22:16.835Z,1005.48
2023-04-03T04:23:16.845Z,1005.42
2023-04-03T04:24:16.817Z,1005.45
2023-04-03T04:25:16.892Z,1005.41
2023-04-03T04:26:16.816Z,1005.42
2023-04-03T04:27:16.817Z,1005.43
2023-04-03T04:28:16.804Z,1005.47
2023-04-03T04:29:16.783Z,1005.48
2023-04-03T04:30:16.820Z,1005.48
2023-04-03T04:31:16.827Z,1005.51
2023-04-03T04:32:16.796Z,1005.49
2023-04-03T04:33:16.764Z,1005.50
2023-04-03T04:34:16.750Z,1005.51
2023-04-03T04:35:17.091Z,1005.54
2023-04-03T04:36:17.817Z,1005.59
2023-04-03T04:37:16.749Z,1005.55
2023-04-03T04:38:16.747Z,1005.63
2023-04-03T04:39:16.706Z,1005.65
2023-04-03T04:40:16.724Z,1005.65
2023-04-03T04:41:16.704Z,1005.60
2023-04-03T04:42:17.784Z,1005.68
2023-04-03T04:43:17.730Z,1005.71
2023-04-03T04:44:16.684Z,1005.68
2023-04-03T04:45:16.677Z,1005.69
2023-04-03T04:46:16.669Z,1005.73
2023-04-03T04:47:16.704Z,1005.72
2023-04-03T04:48:16.679Z,1005.74
2023-04-03T04:49:16.654Z,1005.79
2023-04-03T04:50:16.641Z,1005.73
2023-04-03T04:51:17.540Z,1005.87
2023-04-03T04:52:16.635Z,1005.75
2023-04-03T04:53:16.651Z,1005.78
2023-04-03T04:54:16.648Z,1005.78
2023-04-03T04:55:16.609Z,1005.76
2023-04-03T04:56:17.635Z,1005.78
2023-04-03T04:57:16.672Z,1005.85
2023-04-03T04:58:16.612Z,1005.81
2023-04-03T04:59:16.580Z,1005.90
2023-04-03T05:00:16.589Z,1005.90
2023-04-03T05:01:16.613Z,1005.93
2023-04-03T05:02:16.571Z,1005.92
2023-04-03T05:03:16.576Z,1005.90
2023-04-03T05:04:16.589Z,1005.89
2023-04-03T05:05:16.636Z,1005.89
2023-04-03T05:06:16.550Z,1005.98
2023-04-03T05:07:16.536Z,1005.97
2023-04-03T05:08:16.549Z,1005.97
2023-04-03T05:09:16.528Z,1005.98
2023-04-03T05:10:16.532Z,1005.91
2023-04-03T05:11:16.512Z,1005.91
2023-04-03T05:12:16.512Z,1005.99
2023-04-03T05:13:16.516Z,1005.94
2023-04-03T05:14:16.506Z,1005.89
2023-04-03T05:15:16.484Z,1005.97
2023-04-03T05:16:16.499Z,1005.98
2023-04-03T05:17:16.484Z,1006.01
2023-04-03T05:18:16.488Z,1006.00
2023-04-03T05:19:16.453Z,1005.96
2023-04-03T05:20:16.474Z,1005.97
2023-04-03T05:21:16.458Z,1006.01
2023-04-03T05:22:16.442Z,1006.04
2023-04-03T05:23:16.440Z,1006.03
2023-04-03T05:24:16.457Z,1006.03
2023-04-03T05:25:16.424Z,1006.00
2023-04-03T05:26:16.429Z,1005.98
2023-04-03T05:27:16.405Z,1006.02
2023-04-03T05:28:16.430Z,1006.11
2023-04-03T05:29:16.399Z,1006.02
2023-04-03T05:30:16.398Z,1006.06
2023-04-03T05:31:16.416Z,1006.05
2023-04-03T05:32:16.377Z,1006.02
2023-04-03T05:33:16.358Z,1006.07
2023-04-03T05:34:16.385Z,1006.00
2023-04-03T05:35:16.375Z,1006.02
2023-04-03T05:36:16.403Z,1006.06
2023-04-03T05:37:16.351Z,1006.08
2023-04-03T05:38:16.341Z,1006.07
2023-04-03T05:39:16.354Z,1006.07
2023-04-03T05:40:17.500Z,1006.03
2023-04-03T05:41:16.306Z,1006.13
2023-04-03T05:42:16.347Z,1006.09
2023-04-03T05:43:16.324Z,1006.15
2023-04-03T05:44:16.297Z,1006.15
2023-04-03T05:45:16.287Z,1006.14
2023-04-03T05:46:16.422Z,1006.15
2023-04-03T05:47:16.270Z,1006.22
2023-04-03T05:48:16.256Z,1006.21
2023-04-03T05:49:16.270Z,1006.22
2023-04-03T05:50:16.254Z,1006.28
2023-04-03T05:51:16.264Z,1006.24
2023-04-03T05:52:16.247Z,1006.17
2023-04-03T05:53:16.223Z,1006.26
2023-04-03T05:54:16.265Z,1006.25
2023-04-03T05:55:16.218Z,1006.27
2023-04-03T05:56:16.213Z,1006.31
2023-04-03T05:57:16.307Z,1006.35
2023-04-03T05:58:16.199Z,1006.35
2023-04-03T05:59:16.219Z,1006.28
2023-04-03T06:00:16.946Z,1006.35
2023-04-03T06:01:16.177Z,1006.35
2023-04-03T06:02:16.176Z,1006.40
2023-04-03T06:03:16.266Z,1006.40
2023-04-03T06:04:16.269Z,1006.47
2023-04-03T06:05:16.150Z,1006.45
2023-04-03T06:06:16.153Z,1006.55
2023-04-03T06:07:16.146Z,1006.49
2023-04-03T06:08:16.147Z,1006.53
2023-04-03T06:09:16.160Z,1006.45
2023-04-03T06:10:16.124Z,1006.46
2023-04-03T06:11:16.109Z,1006.46
2023-04-03T06:12:16.114Z,1006.44
2023-04-03T06:13:16.107Z,1006.47
2023-04-03T06:14:17.139Z,1006.47
2023-04-03T06:15:16.109Z,1006.51
2023-04-03T06:16:16.087Z,1006.51
2023-04-03T06:17:16.202Z,1006.53
2023-04-03T06:18:16.087Z,1006.50
2023-04-03T06:19:16.081Z,1006.50
2023-04-03T06:20:18.108Z,1006.54
2023-04-03T06:21:16.050Z,1006.56
2023-04-03T06:22:16.065Z,1006.47
2023-04-03T06:23:16.040Z,1006.53
2023-04-03T06:24:16.083Z,1006.55
2023-04-03T06:25:16.021Z,1006.59
2023-04-03T06:26:16.022Z,1006.52
2023-04-03T06:27:16.028Z,1006.60
2023-04-03T06:28:16.033Z,1006.53
2023-04-03T06:29:16.027Z,1006.57
2023-04-03T06:30:15.995Z,1006.59
2023-04-03T06:31:16.057Z,1006.69
2023-04-03T06:32:15.986Z,1006.67
2023-04-03T06:33:15.985Z,1006.64
2023-04-03T06:34:15.991Z,1006.65
2023-04-03T06:35:15.966Z,1006.70
2023-04-03T06:36:16.024Z,1006.62
2023-04-03T06:37:15.969Z,1006.65
2023-04-03T06:38:15.953Z,1006.70
2023-04-03T06:39:15.966Z,1006.78
2023-04-03T06:40:15.962Z,1006.74
2023-04-03T06:41:15.924Z,1006.77
2023-04-03T06:42:15.926Z,1006.67
2023-04-03T06:43:15.919Z,1006.72
2023-04-03T06:44:15.925Z,1006.73
2023-04-03T06:45:15.934Z,1006.79
2023-04-03T06:46:15.923Z,1006.82
2023-04-03T06:47:15.890Z,1006.89
2023-04-03T06:48:15.946Z,1006.87
2023-04-03T06:49:15.876Z,1006.86
2023-04-03T06:50:15.874Z,1006.84
2023-04-03T06:51:15.862Z,1006.89
2023-04-03T06:52:15.869Z,1006.88
2023-04-03T06:53:15.871Z,1006.89
2023-04-03T06:54:15.892Z,1006.88
2023-04-03T06:55:15.845Z,1006.92
2023-04-03T06:56:15.849Z,1006.97
2023-04-03T06:57:15.867Z,1006.97
2023-04-03T06:58:15.823Z,1007.01
2023-04-03T06:59:15.972Z,1007.02
2023-04-03T07:00:15.818Z,1006.99
2023-04-03T07:01:15.845Z,1007.04
2023-04-03T07:02:15.805Z,1007.02
2023-04-03T07:03:15.790Z,1007.07
2023-04-03T07:04:16.266Z,1007.04
2023-04-03T07:05:15.772Z,1007.05
2023-04-03T07:06:15.764Z,1007.04
2023-04-03T07:07:15.760Z,1007.04
2023-04-03T07:08:15.751Z,1007.06
2023-04-03T07:09:15.777Z,1007.01
2023-04-03T07:10:15.756Z,1007.10
2023-04-03T07:11:15.722Z,1007.12
2023-04-03T07:12:15.734Z,1007.08
2023-04-03T07:13:15.726Z,1007.12
2023-04-03T07:14:15.728Z,1007.16
2023-04-03T07:15:15.700Z,1007.15
2023-04-03T07:16:15.783Z,1007.19
2023-04-03T07:17:16.693Z,1007.24
2023-04-03T07:18:15.689Z,1007.24
2023-04-03T07:19:15.695Z,1007.23
2023-04-03T07:20:15.685Z,1007.22
2023-04-03T07:21:15.657Z,1007.23
2023-04-03T07:22:15.648Z,1007.31
2023-04-03T07:23:15.658Z,1007.28
2023-04-03T07:24:16.762Z,1007.27
2023-04-03T07:25:15.640Z,1007.32
2023-04-03T07:26:15.633Z,1007.31
2023-04-03T07:27:15.624Z,1007.30
2023-04-03T07:28:15.617Z,1007.34
2023-04-03T07:29:15.624Z,1007.34
2023-04-03T07:30:15.612Z,1007.34
2023-04-03T07:31:15.599Z,1007.34
2023-04-03T07:32:15.593Z,1007.41
2023-04-03T07:33:15.600Z,1007.35
2023-04-03T07:34:15.605Z,1007.38
2023-04-03T07:35:15.583Z,1007.38
2023-04-03T07:36:15.599Z,1007.41
2023-04-03T07:37:15.564Z,1007.42
2023-04-03T07:38:15.550Z,1007.37
2023-04-03T07:39:15.563Z,1007.43
2023-04-03T07:40:15.534Z,1007.46
2023-04-03T07:41:15.549Z,1007.48
2023-04-03T07:42:15.546Z,1007.52
2023-04-03T07:43:15.540Z,1007.52
2023-04-03T07:44:15.527Z,1007.53
2023-04-03T07:45:15.503Z,1007.53
2023-04-03T07:46:15.549Z,1007.49
2023-04-03T07:47:15.495Z,1007.52
2023-04-03T07:48:15.478Z,1007.52
2023-04-03T07:49:15.513Z,1007.53
2023-04-03T07:50:15.461Z,1007.49
2023-04-03T07:51:15.453Z,1007.53
2023-04-03T07:52:15.455Z,1007.48
2023-04-03T07:53:15.441Z,1007.49
2023-04-03T07:54:15.454Z,1007.50
2023-04-03T07:55:15.475Z,1007.45
2023-04-03T07:56:15.504Z,1007.50
2023-04-03T07:57:15.448Z,1007.46
2023-04-03T07:58:15.409Z,1007.46
2023-04-03T07:59:15.417Z,1007.46
2023-04-03T08:00:15.406Z,1007.52
2023-04-03T08:01:15.380Z,1007.47
2023-04-03T08:02:15.403Z,1007.57
2023-04-03T08:03:15.491Z,1007.54
2023-04-03T08:04:15.513Z,1007.52
2023-04-03T08:05:15.362Z,1007.59
2023-04-03T08:06:16.469Z,1007.55
2023-04-03T08:07:16.353Z,1007.57
2023-04-03T08:08:15.370Z,1007.51
2023-04-03T08:09:15.349Z,1007.58
2023-04-03T08:10:15.346Z,1007.55
2023-04-03T08:11:15.326Z,1007.51
2023-04-03T08:12:15.308Z,1007.44
2023-04-03T08:13:15.329Z,1007.55
2023-04-03T08:14:15.304Z,1007.49
2023-04-03T08:15:15.297Z,1007.49
2023-04-03T08:16:15.312Z,1007.53
2023-04-03T08:17:15.302Z,1007.56
2023-04-03T08:18:15.387Z,1007.55
2023-04-03T08:19:22.366Z,1007.48
2023-04-03T08:20:17.260Z,1007.50
2023-04-03T08:21:15.268Z,1007.51
2023-04-03T08:22:15.242Z,1007.50
2023-04-03T08:23:15.236Z,1007.44
2023-04-03T08:24:15.248Z,1007.46
2023-04-03T08:25:15.239Z,1007.47
2023-04-03T08:26:15.212Z,1007.53
2023-04-03T08:27:15.207Z,1007.46
2023-04-03T08:28:15.206Z,1007.37
2023-04-03T08:29:15.213Z,1007.44
2023-04-03T08:30:15.193Z,1007.47
2023-04-03T08:31:15.235Z,1007.49
2023-04-03T08:32:15.173Z,1007.48
2023-04-03T08:33:15.247Z,1007.44
2023-04-03T08:34:15.173Z,1007.44
2023-04-03T08:35:15.182Z,1007.41
2023-04-03T08:36:15.194Z,1007.37
2023-04-03T08:37:15.159Z,1007.29
2023-04-03T08:38:15.159Z,1007.36
2023-04-03T08:39:15.115Z,1007.38
2023-04-03T08:40:15.179Z,1007.34
2023-04-03T08:41:15.108Z,1007.38
2023-04-03T08:42:15.102Z,1007.32
2023-04-03T08:43:15.099Z,1007.22
2023-04-03T08:44:15.175Z,1007.30
2023-04-03T08:45:15.101Z,1007.26
2023-04-03T08:46:15.089Z,1007.29
2023-04-03T08:47:15.065Z,1007.23
2023-04-03T08:48:15.127Z,1007.32
2023-04-03T08:49:15.062Z,1007.29
2023-04-03T08:50:15.062Z,1007.30
2023-04-03T08:51:15.040Z,1007.26
2023-04-03T08:52:15.014Z,1007.26
2023-04-03T08:53:15.007Z,1007.28
2023-04-03T08:54:15.151Z,1007.40
2023-04-03T08:55:15.031Z,1007.32
2023-04-03T08:56:15.004Z,1007.34
2023-04-03T08:57:15.049Z,1007.29
2023-04-03T08:58:14.977Z,1007.29
2023-04-03T08:59:14.989Z,1007.30
2023-04-03T09:00:15.075Z,1007.27
2023-04-03T09:01:14.986Z,1007.26
2023-04-03T09:02:14.991Z,1007.28
2023-04-03T09:03:15.119Z,1007.26
2023-04-03T09:04:15.053Z,1007.22
2023-04-03T09:05:15.040Z,1007.27
2023-04-03T09:06:14.960Z,1007.18
2023-04-03T09:07:14.923Z,1007.18
2023-04-03T09:08:14.920Z,1007.24
2023-04-03T09:09:14.923Z,1007.20
2023-04-03T09:10:14.959Z,1007.13
2023-04-03T09:11:14.903Z,1007.17
2023-04-03T09:12:14.896Z,1007.16
2023-04-03T09:13:14.887Z,1007.12
2023-04-03T09:14:14.885Z,1007.17
2023-04-03T09:15:15.198Z,1007.22
2023-04-03T09:16:14.965Z,1007.18
2023-04-03T09:17:14.842Z,1007.15
2023-04-03T09:18:14.844Z,1007.21
2023-04-03T09:19:14.833Z,1007.24
2023-04-03T09:20:14.841Z,1007.22
2023-04-03T09:21:14.833Z,1007.21
2023-04-03T09:22:14.835Z,1007.18
2023-04-03T09:23:14.797Z,1007.17
2023-04-03T09:24:14.798Z,1007.19
2023-04-03T09:25:14.823Z,1007.19
2023-04-03T09:26:14.791Z,1007.23
2023-04-03T09:27:14.783Z,1007.25
2023-04-03T09:28:14.768Z,1007.13
2023-04-03T09:29:14.770Z,1007.21
2023-04-03T09:30:14.776Z,1007.26
2023-04-03T09:31:14.784Z,1007.17
2023-04-03T09:32:14.858Z,1007.29
2023-04-03T09:33:14.806Z,1007.24
2023-04-03T09:34:14.736Z,1007.16
2023-04-03T09:35:20.563Z,1007.12
2023-04-03T09:36:16.768Z,1007.14
2023-04-03T09:37:14.703Z,1007.14
2023-04-03T09:38:14.699Z,1007.13
2023-04-03T09:39:14.720Z,1007.11
2023-04-03T09:40:14.710Z,1007.13
2023-04-03T09:41:14.675Z,1007.09
2023-04-03T09:42:14.672Z,1007.18
2023-04-03T09:43:14.697Z,1007.07
2023-04-03T09:44:14.656Z,1007.15
2023-04-03T09:45:14.658Z,1007.08
2023-04-03T09:46:14.671Z,1007.09
2023-04-03T09:47:14.633Z,1007.11
2023-04-03T09:48:16.337Z,1007.06
2023-04-03T09:49:15.612Z,1007.07
2023-04-03T09:50:14.641Z,1007.08
2023-04-03T09:51:14.619Z,1007.12
2023-04-03T09:52:14.595Z,1007.11
2023-04-03T09:53:14.599Z,1006.99
2023-04-03T09:54:14.596Z,1007.03
2023-04-03T09:55:14.621Z,1007.02
2023-04-03T09:56:14.565Z,1007.07
2023-04-03T09:57:14.650Z,1007.01
2023-04-03T09:58:14.812Z,1007.03
2023-04-03T09:59:14.553Z,1007.03
2023-04-03T10:00:14.577Z,1007.06
2023-04-03T10:01:14.570Z,1007.04
2023-04-03T10:02:14.630Z,1007.03
2023-04-03T10:03:14.537Z,1007.04
2023-04-03T10:04:14.661Z,1006.93
2023-04-03T10:05:14.585Z,1007.00
2023-04-03T10:06:14.509Z,1006.96
2023-04-03T10:07:14.501Z,1006.97
2023-04-03T10:08:14.626Z,1007.00
2023-04-03T10:09:14.501Z,1006.96
2023-04-03T10:10:14.498Z,1006.99
2023-04-03T10:11:14.489Z,1006.96
2023-04-03T10:12:14.488Z,1006.92
2023-04-03T10:13:20.566Z,1006.90
2023-04-03T10:14:16.465Z,1006.90
2023-04-03T10:15:14.467Z,1006.82
2023-04-03T10:16:14.472Z,1006.89
2023-04-03T10:17:14.447Z,1006.86
2023-04-03T10:18:23.736Z,1006.95
2023-04-03T10:19:16.421Z,1006.84
2023-04-03T10:20:14.557Z,1006.92
2023-04-03T10:21:26.738Z,1006.83
2023-04-03T10:22:16.399Z,1006.78
2023-04-03T10:23:14.435Z,1006.88
2023-04-03T10:24:14.393Z,1006.94
2023-04-03T10:25:14.404Z,1006.82
2023-04-03T10:26:14.876Z,1006.85
2023-04-03T10:27:15.389Z,1006.99
2023-04-03T10:28:14.354Z,1006.93
2023-04-03T10:29:14.348Z,1006.90
2023-04-03T10:30:14.380Z,1006.97
2023-04-03T10:31:14.452Z,1006.92
2023-04-03T10:32:14.335Z,1006.95
2023-04-03T10:33:14.340Z,1006.82
2023-04-03T10:34:14.315Z,1006.92
2023-04-03T10:35:14.331Z,1006.91
2023-04-03T10:36:14.385Z,1006.92
2023-04-03T10:37:14.291Z,1006.94
2023-04-03T10:38:14.298Z,1006.96
2023-04-03T10:39:14.289Z,1006.90
2023-04-03T10:40:14.298Z,1006.89
2023-04-03T10:41:15.734Z,1006.95
2023-04-03T10:42:17.718Z,1006.91
2023-04-03T10:43:15.255Z,1006.88
2023-04-03T10:44:14.253Z,1006.84
2023-04-03T10:45:14.267Z,1006.84
2023-04-03T10:46:14.249Z,1006.84
2023-04-03T10:47:14.233Z,1006.86
2023-04-03T10:48:14.243Z,1006.88
2023-04-03T10:49:15.213Z,1006.79
2023-04-03T10:50:14.240Z,1006.88
2023-04-03T10:51:14.203Z,1006.88
2023-04-03T10:52:14.268Z,1006.83
2023-04-03T10:53:14.196Z,1006.83
2023-04-03T10:54:14.182Z,1006.80
2023-04-03T10:55:14.185Z,1006.78
2023-04-03T10:56:14.180Z,1006.79
2023-04-03T10:57:14.410Z,1006.75
2023-04-03T10:58:15.590Z,1006.75
2023-04-03T10:59:14.161Z,1006.79
2023-04-03T11:00:14.192Z,1006.78
2023-04-03T11:01:14.328Z,1006.73
2023-04-03T11:02:14.126Z,1006.71
2023-04-03T11:03:14.218Z,1006.71
2023-04-03T11:04:14.107Z,1006.80
2023-04-03T11:05:14.130Z,1006.74
2023-04-03T11:06:14.099Z,1006.78
2023-04-03T11:07:14.087Z,1006.73
2023-04-03T11:08:14.191Z,1006.71
2023-04-03T11:09:14.082Z,1006.67
2023-04-03T11:10:14.814Z,1006.70
2023-04-03T11:11:15.050Z,1006.71
2023-04-03T11:12:14.083Z,1006.79
2023-04-03T11:13:14.053Z,1006.59
2023-04-03T11:14:14.037Z,1006.63
2023-04-03T11:15:14.102Z,1006.60
2023-04-03T11:16:14.076Z,1006.55
2023-04-03T11:17:14.031Z,1006.47
2023-04-03T11:18:14.093Z,1006.50
2023-04-03T11:19:14.005Z,1006.55
2023-04-03T11:20:14.075Z,1006.48
2023-04-03T11:21:14.024Z,1006.52
2023-04-03T11:22:14.018Z,1006.54
2023-04-03T11:23:13.990Z,1006.53
2023-04-03T11:24:13.966Z,1006.54
2023-04-03T11:25:13.976Z,1006.50
2023-04-03T11:26:13.982Z,1006.42
2023-04-03T11:27:13.961Z,1006.46
2023-04-03T11:28:13.948Z,1006.44
2023-04-03T11:29:17.920Z,1006.39
2023-04-03T11:30:15.927Z,1006.37
2023-04-03T11:31:14.011Z,1006.37
2023-04-03T11:32:13.933Z,1006.37
2023-04-03T11:33:13.912Z,1006.31
2023-04-03T11:34:13.904Z,1006.32
2023-04-03T11:35:13.889Z,1006.33
2023-04-03T11:36:24.818Z,1006.36
2023-04-03T11:37:15.884Z,1006.37
2023-04-03T11:38:13.873Z,1006.21
2023-04-03T11:39:13.874Z,1006.22
2023-04-03T11:40:13.955Z,1006.25
2023-04-03T11:41:13.880Z,1006.20
2023-04-03T11:42:13.874Z,1006.23
2023-04-03T11:43:13.878Z,1006.26
2023-04-03T11:44:13.842Z,1006.24
2023-04-03T11:45:13.834Z,1006.19
2023-04-03T11:46:13.864Z,1006.26
2023-04-03T11:47:13.818Z,1006.24
2023-04-03T11:48:23.881Z,1006.20
2023-04-03T11:49:15.794Z,1006.23
2023-04-03T11:50:13.800Z,1006.19
2023-04-03T11:51:13.782Z,1006.11
2023-04-03T11:52:13.764Z,1006.18
2023-04-03T11:53:13.812Z,1006.21
2023-04-03T11:54:13.774Z,1006.14
2023-04-03T11:55:13.763Z,1006.24
2023-04-03T11:56:13.855Z,1006.15
2023-04-03T11:57:13.788Z,1006.10
2023-04-03T11:58:13.778Z,1006.07
2023-04-03T11:59:13.730Z,1006.13
2023-04-03T12:00:13.741Z,1006.09
2023-04-03T12:01:13.766Z,1006.12
2023-04-03T12:02:13.772Z,1006.17
2023-04-03T12:03:13.810Z,1006.09
2023-04-03T12:04:13.778Z,1006.20
2023-04-03T12:05:13.731Z,1006.11